Time;durP1;ratioP1;P1;durP2;ratioP2;P2;SDS_P1;SDS_P2;PMS_P1;PMS_P2;Temp;Humidity;BMP_temperature;BMP_pressure;BME280_temperature;BME280_humidity;BME280_pressure;Samples;Min_cycle;Max_cycle;Signal;HPM_P1;HPM_P2
2023/06/08 00:01:04;;;;;;;22.58;4.13;;;11.50;99.90;;;;;;5132253;27;20086;-77
2023/06/08 00:03:32;;;;;;;14.20;3.47;;;11.50;99.90;;;;;;5133723;27;20137;-77
2023/06/08 00:06:00;;;;;;;20.50;3.83;;;11.50;99.90;;;;;;5129684;27;20055;-78
2023/06/08 00:08:29;;;;;;;20.75;4.10;;;11.40;99.90;;;;;;5131580;27;20070;-77
2023/06/08 00:10:56;;;;;;;30.50;4.45;;;11.40;99.90;;;;;;5114757;27;20088;-77
2023/06/08 00:13:24;;;;;;;13.18;2.88;;;11.40;99.90;;;;;;5145908;27;20051;-78
2023/06/08 00:15:51;;;;;;;19.75;3.88;;;11.30;99.90;;;;;;5129087;27;20063;-78
2023/06/08 00:18:19;;;;;;;14.98;3.70;;;11.30;99.90;;;;;;5132617;27;20054;-78
2023/06/08 00:20:47;;;;;;;16.70;3.50;;;11.30;99.90;;;;;;5113979;27;20058;-78
2023/06/08 00:23:15;;;;;;;11.73;3.83;;;11.30;99.90;;;;;;5123710;27;20039;-78
2023/06/08 00:25:44;;;;;;;7.70;2.75;;;11.20;99.90;;;;;;5131962;27;20058;-78
2023/06/08 00:28:11;;;;;;;9.18;3.47;;;11.10;99.90;;;;;;5113768;27;20054;-78
2023/06/08 00:30:39;;;;;;;13.68;3.58;;;11.10;99.90;;;;;;5131595;27;20061;-78
2023/06/08 00:33:08;;;;;;;9.05;2.90;;;11.10;99.90;;;;;;5123354;27;20061;-77
2023/06/08 00:35:39;;;;;;;11.80;4.05;;;11.10;99.90;;;;;;5112930;27;20047;-77
2023/06/08 00:38:06;;;;;;;6.72;2.90;;;11.00;99.90;;;;;;5131619;27;20040;-77
2023/06/08 00:40:34;;;;;;;12.98;3.35;;;11.00;99.90;;;;;;5126845;27;20121;-77
2023/06/08 00:43:05;;;;;;;18.52;4.53;;;11.00;99.90;;;;;;5111914;27;20039;-77
2023/06/08 00:45:33;;;;;;;12.30;3.15;;;10.90;99.90;;;;;;5113059;27;20096;-78
2023/06/08 00:48:02;;;;;;;18.40;3.25;;;10.90;99.90;;;;;;5131821;27;20051;-78
2023/06/08 00:50:32;;;;;;;11.73;3.25;;;10.80;99.90;;;;;;5122788;27;20039;-78
2023/06/08 00:53:00;;;;;;;11.20;3.30;;;10.80;99.90;;;;;;5130127;27;20043;-77
2023/06/08 00:55:33;;;;;;;11.15;3.08;;;10.70;99.90;;;;;;5130277;27;20043;-77
2023/06/08 00:58:01;;;;;;;5.40;3.05;;;10.70;99.90;;;;;;5130163;27;20043;-78
2023/06/08 01:00:29;;;;;;;11.05;3.00;;;10.70;99.90;;;;;;5124750;27;20527;-77
2023/06/08 01:02:58;;;;;;;9.70;3.72;;;10.60;99.90;;;;;;5131611;27;20058;-77
2023/06/08 01:05:26;;;;;;;16.10;3.78;;;10.60;99.90;;;;;;5129343;27;20095;-78
2023/06/08 01:08:05;;;;;;;11.57;3.90;;;10.60;99.90;;;;;;5124017;27;20039;-78
2023/06/08 01:10:41;;;;;;;5.80;3.10;;;10.50;99.90;;;;;;5125527;27;20053;-79
2023/06/08 01:13:15;;;;;;;14.77;4.80;;;10.50;99.90;;;;;;5130992;27;20138;-79
2023/06/08 01:15:50;;;;;;;24.45;4.63;;;10.40;99.90;;;;;;5129809;27;20515;-79
2023/06/08 01:18:23;;;;;;;8.88;4.10;;;10.50;99.90;;;;;;5118014;27;20046;-78
2023/06/08 01:21:08;;;;;;;10.25;3.83;;;10.50;99.90;;;;;;5130256;27;20047;-79
2023/06/08 01:24:00;;;;;;;9.18;3.90;;;10.50;99.90;;;;;;5129911;28;20548;-78
2023/06/08 01:26:31;;;;;;;16.37;4.43;;;10.60;99.90;;;;;;5121902;27;20058;-79
2023/06/08 01:28:58;;;;;;;12.80;3.80;;;10.60;99.90;;;;;;5127840;28;20065;-79
2023/06/08 01:31:26;;;;;;;7.50;3.42;;;10.50;99.90;;;;;;5130039;28;20043;-79
2023/06/08 01:33:53;;;;;;;11.07;3.67;;;10.50;99.90;;;;;;5112763;28;20527;-79
2023/06/08 01:36:33;;;;;;;18.98;4.22;;;10.40;99.90;;;;;;5127020;27;20040;-79
2023/06/08 01:39:08;;;;;;;6.90;3.50;;;10.40;99.90;;;;;;5130070;28;20070;-79
2023/06/08 01:41:41;;;;;;;12.75;4.40;;;10.40;99.90;;;;;;5131299;27;20339;-78
2023/06/08 01:44:14;;;;;;;9.93;3.70;;;10.50;99.90;;;;;;5128806;27;20070;-78
2023/06/08 01:46:44;;;;;;;10.25;4.32;;;10.50;99.90;;;;;;5128014;28;20051;-79
2023/06/08 01:49:12;;;;;;;7.93;3.88;;;10.60;99.90;;;;;;5132326;28;20073;-78
2023/06/08 01:51:40;;;;;;;12.65;4.80;;;10.60;99.90;;;;;;5130174;28;20078;-79
2023/06/08 01:54:09;;;;;;;6.95;4.38;;;10.60;99.90;;;;;;5123259;27;20044;-79
2023/06/08 01:56:37;;;;;;;9.00;4.90;;;10.60;99.90;;;;;;5130915;28;20138;-79
2023/06/08 01:59:04;;;;;;;10.60;4.65;;;10.70;99.90;;;;;;5112234;28;20807;-79
2023/06/08 02:01:32;;;;;;;7.97;4.35;;;10.70;99.90;;;;;;5113857;27;20043;-79
2023/06/08 02:04:00;;;;;;;13.02;4.38;;;10.70;99.90;;;;;;5130421;27;20062;-78
2023/06/08 02:06:27;;;;;;;9.20;4.88;;;10.70;99.90;;;;;;5133465;27;20057;-78
2023/06/08 02:08:55;;;;;;;12.85;5.13;;;10.70;99.90;;;;;;5133271;27;20108;-79
2023/06/08 02:11:25;;;;;;;8.93;5.40;;;10.80;99.90;;;;;;5127545;27;20135;-78
2023/06/08 02:13:53;;;;;;;12.38;5.18;;;10.80;99.90;;;;;;5128065;27;20513;-78
2023/06/08 02:16:22;;;;;;;10.75;4.82;;;10.80;99.90;;;;;;5132929;27;20096;-78
2023/06/08 02:18:51;;;;;;;15.38;5.70;;;10.80;99.90;;;;;;5133003;27;20051;-78
2023/06/08 02:21:20;;;;;;;7.25;5.55;;;10.90;99.90;;;;;;5131818;27;20043;-79
2023/06/08 02:23:48;;;;;;;16.17;5.75;;;10.90;99.90;;;;;;5134099;27;20055;-78
2023/06/08 02:26:16;;;;;;;10.00;5.63;;;11.00;99.90;;;;;;5133968;27;20054;-78
2023/06/08 02:28:45;;;;;;;11.57;5.70;;;11.10;99.90;;;;;;5134149;27;20129;-78
2023/06/08 02:31:12;;;;;;;10.65;4.93;;;11.10;99.90;;;;;;5127698;27;20084;-79
2023/06/08 02:33:40;;;;;;;9.25;5.32;;;11.30;99.90;;;;;;5133533;27;20077;-78
2023/06/08 02:36:09;;;;;;;9.00;5.85;;;11.30;99.90;;;;;;5116385;27;20043;-78
2023/06/08 02:38:38;;;;;;;15.38;5.78;;;11.40;99.90;;;;;;5111766;28;20096;-78
2023/06/08 02:41:08;;;;;;;12.52;5.20;;;11.50;99.90;;;;;;5125922;27;20069;-78
2023/06/08 02:43:39;;;;;;;10.40;5.57;;;11.60;99.90;;;;;;5114603;27;20130;-78
2023/06/08 02:46:08;;;;;;;9.95;5.47;;;11.80;99.90;;;;;;5095552;28;20039;-78
2023/06/08 02:48:36;;;;;;;12.13;5.50;;;11.80;99.90;;;;;;5095221;28;20096;-78
2023/06/08 02:51:03;;;;;;;9.88;5.60;;;11.90;99.90;;;;;;5131457;27;20043;-78
2023/06/08 02:53:31;;;;;;;13.32;5.85;;;11.90;99.90;;;;;;5116165;27;20043;-79
2023/06/08 02:55:58;;;;;;;10.55;5.45;;;12.00;99.90;;;;;;5134428;27;20134;-78
2023/06/08 02:58:30;;;;;;;11.40;6.43;;;12.10;99.90;;;;;;5140069;27;20130;-78
2023/06/08 03:01:00;;;;;;;13.68;6.40;;;12.10;99.90;;;;;;5095473;28;20075;-78
2023/06/08 03:03:35;;;;;;;10.05;6.85;;;12.20;99.90;;;;;;5095485;28;20047;-80
2023/06/08 03:06:09;;;;;;;12.43;6.45;;;12.20;99.90;;;;;;5095292;28;20136;-79
2023/06/08 03:08:40;;;;;;;12.13;6.78;;;12.20;99.90;;;;;;5126566;27;20062;-79
2023/06/08 03:11:09;;;;;;;10.38;6.90;;;12.20;99.90;;;;;;5132895;27;20051;-79
2023/06/08 03:13:39;;;;;;;14.68;7.18;;;12.20;99.90;;;;;;5132645;27;20404;-81
2023/06/08 03:16:07;;;;;;;15.43;8.27;;;12.20;99.90;;;;;;5131663;27;20150;-79
2023/06/08 03:18:36;;;;;;;13.48;6.63;;;12.20;99.90;;;;;;5115530;27;20142;-79
2023/06/08 03:21:08;;;;;;;8.80;6.30;;;12.30;99.90;;;;;;5132519;27;20112;-79
2023/06/08 03:23:37;;;;;;;9.85;5.60;;;12.40;99.90;;;;;;5128449;27;20111;-79
2023/06/08 03:26:07;;;;;;;14.98;5.90;;;12.40;99.90;;;;;;5119882;27;20047;-79
2023/06/08 03:28:34;;;;;;;5.90;4.00;;;12.50;99.90;;;;;;5115209;27;20059;-79
2023/06/08 03:31:02;;;;;;;15.73;6.68;;;12.50;99.90;;;;;;5115589;27;20532;-80
2023/06/08 03:33:40;;;;;;;7.75;5.30;;;12.60;99.90;;;;;;5103112;28;20044;-80
2023/06/08 03:36:08;;;;;;;8.77;5.07;;;12.70;99.90;;;;;;5131160;27;20051;-80
2023/06/08 03:38:44;;;;;;;12.90;4.78;;;12.70;99.90;;;;;;5149456;27;20103;-79
2023/06/08 03:41:14;;;;;;;10.65;5.28;;;12.70;99.90;;;;;;5131922;27;20051;-79
2023/06/08 03:43:43;;;;;;;11.00;5.22;;;12.70;99.90;;;;;;5129071;27;20067;-79
2023/06/08 03:46:10;;;;;;;10.10;5.95;;;12.70;99.90;;;;;;5131128;27;20521;-79
2023/06/08 03:48:40;;;;;;;11.13;5.35;;;12.80;99.90;;;;;;5132614;27;20066;-79
2023/06/08 03:51:10;;;;;;;9.07;4.88;;;12.80;99.90;;;;;;5124806;27;20044;-79
2023/06/08 03:53:38;;;;;;;9.77;5.80;;;12.80;99.90;;;;;;5121231;27;20138;-79
2023/06/08 03:56:06;;;;;;;15.60;5.75;;;12.80;99.90;;;;;;5113930;27;20054;-79
2023/06/08 03:58:37;;;;;;;7.57;4.22;;;12.90;99.90;;;;;;5131154;27;20059;-79
2023/06/08 04:01:05;;;;;;;5.95;4.80;;;13.00;99.90;;;;;;5128494;27;20503;-79
2023/06/08 04:03:34;;;;;;;9.18;4.60;;;12.90;99.90;;;;;;5114119;27;20043;-79
2023/06/08 04:06:08;;;;;;;9.85;4.68;;;12.90;99.90;;;;;;5132941;27;20510;-79
2023/06/08 04:08:40;;;;;;;8.57;4.70;;;12.90;99.90;;;;;;5129968;27;20495;-78
2023/06/08 04:11:08;;;;;;;10.93;4.63;;;12.90;99.90;;;;;;5112300;27;20046;-77
2023/06/08 04:13:36;;;;;;;8.80;5.07;;;12.90;99.90;;;;;;5132906;27;20042;-77
2023/06/08 04:16:08;;;;;;;11.82;5.53;;;12.90;99.90;;;;;;5131275;27;20515;-78
2023/06/08 04:18:43;;;;;;;8.93;5.38;;;12.90;99.90;;;;;;5106069;27;20045;-79
2023/06/08 04:21:29;;;;;;;13.50;5.13;;;13.00;99.90;;;;;;5111612;27;20047;-79
2023/06/08 04:24:07;;;;;;;13.60;5.47;;;13.00;99.90;;;;;;5126742;27;20296;-76
2023/06/08 04:26:38;;;;;;;9.60;5.47;;;13.20;99.90;;;;;;5111755;27;20049;-77
2023/06/08 04:29:08;;;;;;;10.00;5.05;;;13.40;99.90;;;;;;5124289;27;20043;-76
2023/06/08 04:31:39;;;;;;;7.45;4.95;;;13.60;99.90;;;;;;5113095;27;20079;-76
2023/06/08 04:34:07;;;;;;;8.38;4.50;;;13.70;99.90;;;;;;5126414;27;20415;-76
2023/06/08 04:36:38;;;;;;;6.68;4.43;;;13.90;99.90;;;;;;5111108;27;20042;-76
2023/06/08 04:39:08;;;;;;;11.27;4.60;;;14.00;99.90;;;;;;5129070;27;20125;-77
2023/06/08 04:41:40;;;;;;;6.30;3.67;;;14.20;99.90;;;;;;5108275;27;20044;-77
2023/06/08 04:44:08;;;;;;;13.50;4.82;;;14.40;99.90;;;;;;5106798;27;20082;-77
2023/06/08 04:46:38;;;;;;;11.63;4.80;;;14.60;99.90;;;;;;5121708;27;20092;-78
2023/06/08 04:49:05;;;;;;;7.78;4.20;;;14.80;99.90;;;;;;5121449;27;20044;-78
2023/06/08 04:51:33;;;;;;;5.18;3.97;;;14.90;99.90;;;;;;5112403;27;20039;-78
2023/06/08 04:54:28;;;;;;;7.00;3.60;;;14.90;99.90;;;;;;5123144;27;20062;-77
2023/06/08 04:57:03;;;;;;;9.20;3.50;;;14.90;99.90;;;;;;5126837;27;20092;-77
2023/06/08 04:59:31;;;;;;;10.32;3.00;;;14.90;99.90;;;;;;5105457;27;20046;-78
2023/06/08 05:02:06;;;;;;;7.40;3.92;;;14.90;99.90;;;;;;5125825;27;20087;-77
2023/06/08 05:04:34;;;;;;;7.90;3.60;;;14.90;99.90;;;;;;5122734;27;20034;-78
2023/06/08 05:07:07;;;;;;;9.43;3.75;;;15.10;99.90;;;;;;5120320;27;20038;-78
2023/06/08 05:09:39;;;;;;;5.45;4.25;;;15.20;99.90;;;;;;5118373;27;20059;-76
2023/06/08 05:12:08;;;;;;;5.50;3.10;;;15.30;99.90;;;;;;5122376;27;20058;-78
2023/06/08 05:14:38;;;;;;;4.65;2.88;;;15.30;99.90;;;;;;5124336;27;20059;-79
2023/06/08 05:17:08;;;;;;;7.35;2.38;;;15.40;99.90;;;;;;5114835;28;20094;-78
2023/06/08 05:19:36;;;;;;;5.05;2.00;;;15.50;99.90;;;;;;5112420;28;20134;-79
2023/06/08 05:22:04;;;;;;;6.03;2.50;;;15.50;99.90;;;;;;5120139;27;20084;-79
2023/06/08 05:24:31;;;;;;;11.18;3.75;;;15.60;99.90;;;;;;5123161;28;20597;-77
2023/06/08 05:27:01;;;;;;;5.97;1.90;;;15.70;99.90;;;;;;5129171;27;20611;-78
2023/06/08 05:29:28;;;;;;;7.82;2.13;;;15.80;99.90;;;;;;5104646;28;20064;-78
2023/06/08 05:31:56;;;;;;;5.65;1.35;;;16.00;99.90;;;;;;5126416;27;20047;-79
2023/06/08 05:34:24;;;;;;;4.05;1.05;;;16.10;99.90;;;;;;5131774;27;20549;-79
2023/06/08 05:36:52;;;;;;;4.43;1.25;;;16.30;99.90;;;;;;5134199;27;20050;-78
2023/06/08 05:39:19;;;;;;;8.43;1.63;;;16.50;99.90;;;;;;5132968;27;20051;-78
2023/06/08 05:41:47;;;;;;;4.60;1.15;;;17.00;99.90;;;;;;5131683;27;20043;-78
2023/06/08 05:44:16;;;;;;;2.95;1.25;;;17.50;99.90;;;;;;5135826;27;20152;-78
2023/06/08 05:46:43;;;;;;;1.70;1.08;;;18.00;97.20;;;;;;5135771;27;20053;-79
2023/06/08 05:49:11;;;;;;;5.43;1.60;;;18.40;96.20;;;;;;5124525;27;20046;-78
2023/06/08 05:51:39;;;;;;;13.45;1.23;;;18.90;92.30;;;;;;5129717;27;20511;-78
2023/06/08 05:54:06;;;;;;;3.25;0.90;;;19.30;90.20;;;;;;5131094;27;20047;-79
2023/06/08 05:56:34;;;;;;;3.90;1.13;;;19.60;86.30;;;;;;5132585;27;20055;-78
2023/06/08 05:59:01;;;;;;;2.17;0.70;;;19.90;84.30;;;;;;5111608;27;20096;-78
2023/06/08 06:01:31;;;;;;;1.83;0.90;;;20.20;78.20;;;;;;5133094;27;20054;-79
2023/06/08 06:04:03;;;;;;;5.97;0.90;;;20.30;76.10;;;;;;5133689;27;20138;-82
2023/06/08 06:06:32;;;;;;;3.67;1.00;;;20.50;75.70;;;;;;5130964;27;20043;-78
2023/06/08 06:08:59;;;;;;;3.83;1.10;;;20.70;73.50;;;;;;5118294;27;20473;-78
2023/06/08 06:11:27;;;;;;;3.67;1.20;;;21.00;71.60;;;;;;5115051;27;20109;-77
2023/06/08 06:13:55;;;;;;;3.88;1.00;;;21.20;71.10;;;;;;5129588;27;20433;-77
2023/06/08 06:16:23;;;;;;;4.07;1.10;;;21.50;69.10;;;;;;5126854;27;20414;-77
2023/06/08 06:18:52;;;;;;;3.70;1.10;;;21.80;68.20;;;;;;5132044;27;20047;-77
2023/06/08 06:21:19;;;;;;;3.92;1.00;;;22.00;66.80;;;;;;5128258;27;20035;-77
2023/06/08 06:23:47;;;;;;;2.63;1.05;;;22.20;65.90;;;;;;5131209;27;20035;-77
2023/06/08 06:26:14;;;;;;;5.55;1.17;;;22.50;65.10;;;;;;5129612;27;20162;-79
2023/06/08 06:28:48;;;;;;;1.80;0.80;;;22.70;64.70;;;;;;5133093;27;20121;-80
2023/06/08 06:31:16;;;;;;;2.40;1.10;;;22.90;62.10;;;;;;5132299;27;20059;-82
2023/06/08 06:33:44;;;;;;;3.53;1.23;;;22.80;64.20;;;;;;5124642;27;20046;-81
2023/06/08 06:36:14;;;;;;;4.63;1.05;;;22.80;63.90;;;;;;5131587;27;20519;-81
2023/06/08 06:38:45;;;;;;;3.17;0.85;;;22.90;61.50;;;;;;5131695;27;20384;-76
2023/06/08 06:41:15;;;;;;;3.65;0.90;;;22.90;59.70;;;;;;5125185;27;20078;-76
2023/06/08 06:43:43;;;;;;;5.43;1.20;;;22.70;61.10;;;;;;5124553;27;20050;-81
2023/06/08 06:46:22;;;;;;;3.33;1.05;;;22.90;61.50;;;;;;5114505;27;20055;-80
2023/06/08 06:48:49;;;;;;;1.30;0.70;;;23.10;59.60;;;;;;5129797;27;20130;-76
2023/06/08 06:51:19;;;;;;;2.05;1.00;;;23.30;59.00;;;;;;5129677;27;20535;-77
2023/06/08 06:53:46;;;;;;;3.05;1.27;;;23.30;58.80;;;;;;5121149;27;20142;-75
2023/06/08 06:56:14;;;;;;;4.85;0.90;;;23.30;59.40;;;;;;5122425;27;20051;-74
2023/06/08 06:58:44;;;;;;;3.45;1.02;;;23.50;59.40;;;;;;5110701;27;20425;-75
2023/06/08 07:01:12;;;;;;;9.43;1.45;;;23.80;58.60;;;;;;5113899;27;20043;-75
2023/06/08 07:03:42;;;;;;;3.38;1.00;;;23.90;58.40;;;;;;5126373;27;20070;-75
2023/06/08 07:06:12;;;;;;;4.18;1.27;;;24.10;58.80;;;;;;5122773;27;20049;-75
2023/06/08 07:08:41;;;;;;;2.88;1.33;;;24.60;57.50;;;;;;5128975;27;20049;-75
2023/06/08 07:11:11;;;;;;;4.13;0.90;;;24.90;57.90;;;;;;5127567;27;20054;-80
2023/06/08 07:13:38;;;;;;;3.22;1.20;;;25.40;56.10;;;;;;5126355;27;20047;-72
2023/06/08 07:16:06;;;;;;;6.57;1.65;;;25.60;55.70;;;;;;5128164;27;20058;-74
2023/06/08 07:18:34;;;;;;;3.92;1.42;;;25.70;55.00;;;;;;5130154;27;20043;-74
2023/06/08 07:21:02;;;;;;;6.32;1.35;;;25.70;55.70;;;;;;5125988;27;20055;-73
2023/06/08 07:23:30;;;;;;;4.53;0.98;;;25.80;54.80;;;;;;5124659;27;20043;-74
2023/06/08 07:25:58;;;;;;;4.07;1.00;;;26.30;53.60;;;;;;5129221;27;20054;-74
2023/06/08 07:28:26;;;;;;;3.15;1.00;;;26.70;52.30;;;;;;5120950;27;20057;-76
2023/06/08 07:30:54;;;;;;;2.92;0.90;;;26.80;52.90;;;;;;5128443;27;20071;-75
2023/06/08 07:33:21;;;;;;;2.10;0.77;;;26.70;53.10;;;;;;5113863;27;20470;-76
2023/06/08 07:35:49;;;;;;;5.13;1.13;;;27.10;51.70;;;;;;5142354;27;20058;-77
2023/06/08 07:38:16;;;;;;;10.98;1.50;;;27.50;51.90;;;;;;5128645;27;20050;-76
2023/06/08 07:40:43;;;;;;;4.45;1.10;;;28.20;50.70;;;;;;5131438;27;20049;-76
2023/06/08 07:43:12;;;;;;;3.78;0.80;;;27.80;48.70;;;;;;5132672;27;20043;-75
2023/06/08 07:45:40;;;;;;;5.50;0.90;;;26.70;49.30;;;;;;5120739;27;20481;-75
2023/06/08 07:48:07;;;;;;;5.72;0.98;;;26.50;50.30;;;;;;5108080;27;20048;-75
2023/06/08 07:50:35;;;;;;;1.60;0.68;;;26.10;50.30;;;;;;5126832;27;20045;-74
2023/06/08 07:53:03;;;;;;;1.80;0.70;;;25.80;50.90;;;;;;5105182;27;20039;-77
2023/06/08 07:55:31;;;;;;;4.53;0.80;;;25.60;51.70;;;;;;5138881;27;20083;-77
2023/06/08 07:57:58;;;;;;;1.25;1.15;;;26.50;52.50;;;;;;5123093;27;20047;-77
2023/06/08 08:00:27;;;;;;;5.22;1.17;;;26.90;49.10;;;;;;5131132;27;20423;-77
2023/06/08 08:02:55;;;;;;;2.42;0.82;;;26.10;49.70;;;;;;5113456;27;20043;-76
2023/06/08 08:05:22;;;;;;;1.60;0.90;;;24.80;51.00;;;;;;5128423;27;20092;-77
2023/06/08 08:07:51;;;;;;;1.45;0.80;;;23.80;52.90;;;;;;5101133;28;20059;-76
2023/06/08 08:10:18;;;;;;;1.85;0.77;;;23.20;53.90;;;;;;5127357;27;20073;-77
2023/06/08 08:12:47;;;;;;;3.05;0.73;;;23.80;54.00;;;;;;5129953;27;20050;-82
2023/06/08 08:15:14;;;;;;;0.73;0.73;;;25.00;52.20;;;;;;5116375;27;20047;-80
2023/06/08 08:17:43;;;;;;;2.92;0.93;;;26.40;50.80;;;;;;5120210;27;20043;-81
2023/06/08 08:20:12;;;;;;;4.47;0.90;;;27.60;49.60;;;;;;5128951;27;20043;-82
2023/06/08 08:22:39;;;;;;;4.63;1.10;;;28.50;48.10;;;;;;5131741;27;20074;-81
2023/06/08 08:25:08;;;;;;;4.57;1.20;;;29.40;47.30;;;;;;5125380;27;20415;-80
2023/06/08 08:27:36;;;;;;;2.80;1.10;;;29.90;46.60;;;;;;5131239;27;20043;-81
2023/06/08 08:30:04;;;;;;;5.88;1.17;;;29.30;45.10;;;;;;5125638;27;20126;-79
2023/06/08 08:32:32;;;;;;;3.53;1.08;;;27.50;46.80;;;;;;5129766;27;20058;-81
2023/06/08 08:35:01;;;;;;;4.00;0.90;;;25.80;48.90;;;;;;5126896;27;20059;-77
2023/06/08 08:37:32;;;;;;;;;;;24.90;50.40;;;;;;5120129;27;20395;-75
2023/06/08 08:40:00;;;;;;;2.97;1.20;;;24.00;51.60;;;;;;5123384;27;19923;-75
2023/06/08 08:42:29;;;;;;;1.30;1.20;;;23.40;53.00;;;;;;5108899;27;20047;-77
2023/06/08 08:45:00;;;;;;;2.10;1.00;;;23.00;54.80;;;;;;5127041;27;20049;-79
2023/06/08 08:47:31;;;;;;;5.65;1.10;;;23.20;55.00;;;;;;5124896;27;20130;-78
2023/06/08 08:50:04;;;;;;;1.80;1.00;;;24.80;52.60;;;;;;5129277;27;20090;-78
2023/06/08 08:52:34;;;;;;;4.03;1.10;;;26.20;50.50;;;;;;5112235;27;20043;-81
2023/06/08 08:55:02;;;;;;;1.48;1.17;;;27.00;49.00;;;;;;5130072;27;20047;-77
2023/06/08 08:57:31;;;;;;;2.92;0.88;;;26.30;49.10;;;;;;5130087;27;20095;-82
2023/06/08 09:00:01;;;;;;;3.70;1.38;;;25.30;50.00;;;;;;5127956;27;20043;-81
2023/06/08 09:02:35;;;;;;;5.35;1.05;;;24.70;51.60;;;;;;5124797;27;20577;-78
2023/06/08 09:05:06;;;;;;;3.63;1.53;;;24.90;52.40;;;;;;5126657;27;20043;-83
2023/06/08 09:07:35;;;;;;;2.90;1.15;;;24.90;52.20;;;;;;5128599;27;20050;-79
2023/06/08 09:10:17;;;;;;;4.60;1.50;;;24.50;52.20;;;;;;5131713;27;20039;-79
2023/06/08 09:12:50;;;;;;;4.22;1.60;;;24.90;52.60;;;;;;5129003;27;20143;-81
2023/06/08 09:15:30;;;;;;;5.20;1.65;;;25.90;51.30;;;;;;5127663;27;20460;-77
2023/06/08 09:18:02;;;;;;;2.95;1.42;;;27.10;49.40;;;;;;5125974;27;20058;-78
2023/06/08 09:20:34;;;;;;;5.15;1.30;;;28.20;48.20;;;;;;5121875;27;20464;-78
2023/06/08 09:23:17;;;;;;;6.43;1.52;;;27.60;47.30;;;;;;5127056;27;20043;-79
2023/06/08 09:25:46;;;;;;;2.30;1.17;;;27.00;48.50;;;;;;5104888;28;20071;-78
2023/06/08 09:28:18;;;;;;;5.68;1.20;;;26.60;48.50;;;;;;5130137;27;20047;-77
2023/06/08 09:30:49;;;;;;;6.55;1.30;;;25.80;50.40;;;;;;5127710;28;20045;-79
2023/06/08 09:33:26;;;;;;;3.05;1.50;;;24.90;51.90;;;;;;5103739;28;20392;-79
2023/06/08 09:36:15;;;;;;;2.85;1.02;;;24.30;52.20;;;;;;5126621;27;20145;-76
2023/06/08 09:38:44;;;;;;;3.85;1.13;;;24.60;54.00;;;;;;5125806;28;20054;-79
2023/06/08 09:41:16;;;;;;;2.80;1.27;;;25.70;52.60;;;;;;5130502;27;20480;-80
2023/06/08 09:43:49;;;;;;;3.65;1.20;;;25.60;50.30;;;;;;5105884;28;20575;-80
2023/06/08 09:46:34;;;;;;;3.05;1.27;;;26.30;50.20;;;;;;5130196;27;20107;-78
2023/06/08 09:49:05;;;;;;;1.83;1.10;;;27.80;49.00;;;;;;5127677;28;20138;-77
2023/06/08 09:51:37;;;;;;;3.95;2.00;;;27.90;47.80;;;;;;5127324;27;20075;-78
2023/06/08 09:54:06;;;;;;;3.72;1.20;;;27.20;47.90;;;;;;5128586;27;20085;-75
2023/06/08 09:56:37;;;;;;;9.27;4.03;;;26.40;48.60;;;;;;5125604;28;20142;-76
2023/06/08 09:59:09;;;;;;;1.60;1.02;;;25.80;48.80;;;;;;5130982;27;20051;-76
2023/06/08 10:01:43;;;;;;;1.27;0.93;;;26.50;48.90;;;;;;5129374;27;20062;-77
2023/06/08 10:04:22;;;;;;;1.73;0.90;;;27.10;47.60;;;;;;5130088;28;20074;-75
2023/06/08 10:06:56;;;;;;;3.97;1.00;;;26.80;47.40;;;;;;5116676;28;20052;-77
2023/06/08 10:09:29;;;;;;;4.20;1.77;;;26.30;47.90;;;;;;5119779;27;20146;-77
2023/06/08 10:11:58;;;;;;;7.82;1.52;;;26.60;48.70;;;;;;5118517;27;20043;-75
2023/06/08 10:14:28;;;;;;;7.80;1.50;;;27.80;47.00;;;;;;5114417;28;20044;-77
2023/06/08 10:16:58;;;;;;;1.90;1.42;;;27.60;46.60;;;;;;5126293;28;20051;-75
2023/06/08 10:19:27;;;;;;;6.50;1.40;;;26.60;48.10;;;;;;5124149;27;20490;-81
2023/06/08 10:21:59;;;;;;;2.83;1.10;;;26.30;49.50;;;;;;5129918;27;20074;-76
2023/06/08 10:24:27;;;;;;;2.85;1.27;;;27.30;50.40;;;;;;5131723;27;20047;-76
2023/06/08 10:27:10;;;;;;;2.05;1.42;;;28.70;48.30;;;;;;5128578;27;20070;-76
2023/06/08 10:29:38;;;;;;;4.40;1.20;;;30.10;45.90;;;;;;5109588;27;20518;-75
2023/06/08 10:32:10;;;;;;;2.22;1.17;;;31.00;45.00;;;;;;5132508;27;20074;-79
2023/06/08 10:34:42;;;;;;;2.53;1.10;;;31.50;44.80;;;;;;5131490;27;20445;-79
2023/06/08 10:37:30;;;;;;;5.03;1.45;;;32.30;44.40;;;;;;5127990;27;20055;-79
2023/06/08 10:40:00;;;;;;;1.30;0.90;;;33.10;42.70;;;;;;5132604;27;20495;-78
2023/06/08 10:42:28;;;;;;;3.00;1.33;;;33.20;41.70;;;;;;5127865;27;20091;-79
2023/06/08 10:44:57;;;;;;;40.75;36.38;;;32.90;41.90;;;;;;5114699;27;20087;-79
2023/06/08 10:47:26;;;;;;;2.55;1.30;;;32.50;41.60;;;;;;5129280;27;20043;-78
2023/06/08 10:50:00;;;;;;;1.67;1.38;;;32.50;42.70;;;;;;5134115;27;20522;-81
2023/06/08 10:52:30;;;;;;;2.15;0.95;;;32.80;43.40;;;;;;5125528;27;20493;-77
2023/06/08 10:55:00;;;;;;;1.23;1.13;;;33.00;41.60;;;;;;5125318;27;20095;-77
2023/06/08 10:57:52;;;;;;;2.33;1.10;;;33.20;40.40;;;;;;5129033;27;20120;-75
2023/06/08 11:00:45;;;;;;;4.15;1.10;;;33.10;40.60;;;;;;5124477;27;20524;-76
2023/06/08 11:03:16;;;;;;;5.70;1.40;;;32.40;42.50;;;;;;5125135;27;20139;-77
2023/06/08 11:05:49;;;;;;;2.28;1.02;;;32.10;41.60;;;;;;5138238;27;20441;-80
2023/06/08 11:08:19;;;;;;;3.67;1.08;;;31.90;41.80;;;;;;5131479;27;20062;-77
2023/06/08 11:10:54;;;;;;;6.35;1.90;;;32.30;41.90;;;;;;5128079;27;20071;-77
2023/06/08 11:13:23;;;;;;;5.85;1.55;;;32.80;41.80;;;;;;5125539;27;20051;-76
2023/06/08 11:15:51;;;;;;;5.60;1.60;;;33.50;41.70;;;;;;5111807;28;20050;-76
2023/06/08 11:18:20;;;;;;;7.55;2.70;;;34.20;42.00;;;;;;5126852;27;20058;-77
2023/06/08 11:20:48;;;;;;;1.52;1.17;;;34.70;41.50;;;;;;5110106;27;20134;-76
2023/06/08 11:23:16;;;;;;;4.47;2.70;;;35.20;41.90;;;;;;5122578;27;20468;-77
2023/06/08 11:25:48;;;;;;;1.20;1.10;;;35.30;40.30;;;;;;5124008;27;20043;-80
2023/06/08 11:28:15;;;;;;;5.10;1.35;;;35.20;40.10;;;;;;5131779;27;20138;-78
2023/06/08 11:30:42;;;;;;;2.75;1.10;;;35.40;40.30;;;;;;5124134;27;20047;-79
2023/06/08 11:33:14;;;;;;;3.03;1.60;;;35.80;40.30;;;;;;5128196;27;20418;-77
2023/06/08 11:35:42;;;;;;;4.13;1.60;;;36.00;41.10;;;;;;5126055;27;20043;-79
2023/06/08 11:38:10;;;;;;;3.17;1.45;;;36.00;40.20;;;;;;5127343;27;20077;-78
2023/06/08 11:40:41;;;;;;;6.15;2.00;;;36.10;40.10;;;;;;5122885;27;20130;-79
2023/06/08 11:43:14;;;;;;;2.97;1.48;;;36.40;40.70;;;;;;5130427;27;20047;-75
2023/06/08 11:45:43;;;;;;;2.88;1.40;;;36.50;39.90;;;;;;5118176;27;20047;-82
2023/06/08 11:48:11;;;;;;;6.55;1.23;;;36.70;40.60;;;;;;5128177;27;20668;-80
2023/06/08 11:50:47;;;;;;;5.55;1.80;;;36.60;39.90;;;;;;5119229;27;20526;-80
2023/06/08 11:53:16;;;;;;;2.47;1.50;;;36.70;40.00;;;;;;5125996;27;20586;-84
2023/06/08 11:55:46;;;;;;;2.90;1.63;;;36.80;40.00;;;;;;5132052;27;20054;-84
2023/06/08 11:58:16;;;;;;;3.13;1.90;;;37.00;39.70;;;;;;5123537;27;20418;-82
2023/06/08 12:00:45;;;;;;;4.68;1.40;;;36.90;39.70;;;;;;5121255;27;20420;-82
2023/06/08 12:03:12;;;;;;;5.05;1.70;;;36.80;39.90;;;;;;5131184;27;20054;-80
2023/06/08 12:05:43;;;;;;;2.55;1.48;;;36.70;40.70;;;;;;5130939;27;20507;-82
2023/06/08 12:08:14;;;;;;;3.43;1.13;;;36.90;41.40;;;;;;5122199;27;20146;-83
2023/06/08 12:10:43;;;;;;;5.13;1.40;;;36.90;38.90;;;;;;5116009;27;20325;-79
2023/06/08 12:13:13;;;;;;;2.80;1.45;;;36.80;40.30;;;;;;5131465;27;20081;-79
2023/06/08 12:15:47;;;;;;;2.95;1.55;;;36.70;38.90;;;;;;5130117;27;20096;-79
2023/06/08 12:18:17;;;;;;;2.72;1.25;;;36.70;39.90;;;;;;5127785;27;20051;-77
2023/06/08 12:20:46;;;;;;;2.88;1.45;;;36.60;39.20;;;;;;5121900;27;20036;-74
2023/06/08 12:23:14;;;;;;;4.57;1.38;;;36.60;40.40;;;;;;5126461;27;20201;-76
2023/06/08 12:25:43;;;;;;;4.05;1.13;;;36.90;39.90;;;;;;5120246;27;20516;-75
2023/06/08 12:28:18;;;;;;;5.20;1.40;;;36.90;39.70;;;;;;5128551;27;20047;-77
2023/06/08 12:30:48;;;;;;;3.85;1.10;;;37.10;40.10;;;;;;5130231;27;20402;-76
2023/06/08 12:33:17;;;;;;;4.82;1.30;;;37.30;38.70;;;;;;5127413;27;20083;-82
2023/06/08 12:35:54;;;;;;;5.32;1.60;;;37.30;38.40;;;;;;5110743;27;20035;-76
2023/06/08 12:38:43;;;;;;;6.10;1.58;;;37.00;38.50;;;;;;5127988;27;20055;-76
2023/06/08 12:41:11;;;;;;;3.47;1.52;;;36.70;38.70;;;;;;5128496;27;20047;-75
2023/06/08 12:43:43;;;;;;;5.00;1.48;;;36.90;39.10;;;;;;5124206;27;20039;-76
2023/06/08 12:46:12;;;;;;;3.88;1.63;;;37.20;39.20;;;;;;5121067;27;20062;-77
2023/06/08 12:48:41;;;;;;;7.93;1.55;;;37.00;38.70;;;;;;5116481;27;20050;-76
2023/06/08 12:51:10;;;;;;;3.30;1.20;;;36.90;39.80;;;;;;5120156;27;20146;-77
2023/06/08 12:53:37;;;;;;;4.75;1.50;;;36.30;40.10;;;;;;5118245;27;20063;-78
2023/06/08 12:56:05;;;;;;;3.38;2.00;;;36.30;40.40;;;;;;5117631;27;20130;-76
2023/06/08 12:58:33;;;;;;;4.03;1.75;;;36.60;39.50;;;;;;5124502;27;20050;-82
2023/06/08 13:01:01;;;;;;;1.88;1.58;;;36.60;39.30;;;;;;5109997;27;20400;-83